Terminal Aerodrome Forecast
Issued by NWS

Home | Current Version | Previous Version | Text Only | Print | Product List | Glossary On
Versions: 1 2 3 4 5 6 7 8 9 10 11 12 13
000
FTUS43 KMQT 310500
TAFIWD
TAF
KIWD 310524Z 3106/0106 08002KT P6SM BKN035
     FM310700 VRB03KT 1 1/2SM BR SCT035
     FM310900 VRB03KT 1/4SM FG VV002
     FM311300 14003KT 2SM BR SCT003
     FM311400 16009KT P6SM SCT050
     FM010000 19009KT P6SM BKN100 WS010/21035KT
      AMD NOT SKED=

USA.gov is the U.S. government's official web portal to all federal, state and local government web resources and services.